createdAt,value
2018-05-01T02:00:16.883Z,793.85
2018-05-01T02:00:21.201Z,793.87
2018-05-01T02:00:25.327Z,793.88
2018-05-01T02:00:29.540Z,793.87
2018-05-01T02:00:33.647Z,793.89
2018-05-01T02:00:37.863Z,793.87
2018-05-01T02:00:41.960Z,793.89
2018-05-01T02:00:46.174Z,793.89
2018-05-01T02:00:50.280Z,793.86
2018-05-01T02:00:54.487Z,793.9
2018-05-01T02:00:58.808Z,793.88
2018-05-01T02:01:02.914Z,793.88
2018-05-01T02:01:06.804Z,793.9
2018-05-01T02:01:11.122Z,793.88
2018-05-01T02:01:15.435Z,793.9
2018-05-01T02:01:19.646Z,793.88
2018-05-01T02:01:23.857Z,793.85
2018-05-01T02:01:27.958Z,793.84
2018-05-01T02:01:32.168Z,793.86
2018-05-01T02:01:36.488Z,793.87
2018-05-01T02:01:40.714Z,793.91
2018-05-01T02:01:44.928Z,793.9
2018-05-01T02:01:49.153Z,793.88
2018-05-01T02:01:53.256Z,793.87
2018-05-01T02:01:57.567Z,793.88
2018-05-01T02:02:01.665Z,793.9
2018-05-01T02:02:05.662Z,793.89
2018-05-01T02:02:09.870Z,793.89
2018-05-01T02:02:14.187Z,793.88
2018-05-01T02:02:18.503Z,793.87
2018-05-01T02:02:22.711Z,793.89
2018-05-01T02:02:27.036Z,793.91
2018-05-01T02:02:31.349Z,793.9
2018-05-01T02:02:35.563Z,793.93
2018-05-01T02:02:39.773Z,793.92
2018-05-01T02:02:43.882Z,793.9
2018-05-01T02:02:47.979Z,793.91
2018-05-01T02:02:52.194Z,793.9
2018-05-01T02:02:56.405Z,793.9
2018-05-01T02:03:00.504Z,793.91
2018-05-01T02:03:04.610Z,793.94
2018-05-01T02:03:08.822Z,793.89
2018-05-01T02:03:13.136Z,793.86
2018-05-01T02:03:17.342Z,793.92
2018-05-01T02:03:21.662Z,793.93
2018-05-01T02:03:25.768Z,793.94
2018-05-01T02:03:29.979Z,793.93
2018-05-01T02:03:34.191Z,793.94
2018-05-01T02:03:38.603Z,793.89
2018-05-01T02:03:42.816Z,793.87
2018-05-01T02:03:46.930Z,793.93
2018-05-01T02:03:51.145Z,793.92
2018-05-01T02:03:55.457Z,793.91
2018-05-01T02:03:59.663Z,793.94
2018-05-01T02:04:03.876Z,793.93
2018-05-01T02:04:08.201Z,793.92
2018-05-01T02:04:12.516Z,793.91
2018-05-01T02:04:16.731Z,793.92
2018-05-01T02:04:21.045Z,793.96
2018-05-01T02:04:25.360Z,793.94
2018-05-01T02:04:29.464Z,793.94
2018-05-01T02:04:33.686Z,793.95
2018-05-01T02:04:37.893Z,793.97
2018-05-01T02:04:41.991Z,793.95
2018-05-01T02:04:46.315Z,793.95
2018-05-01T02:04:50.637Z,793.93
2018-05-01T02:04:54.967Z,793.98
2018-05-01T02:04:59.067Z,793.97
2018-05-01T02:05:03.279Z,793.95
2018-05-01T02:05:07.494Z,793.99
2018-05-01T02:05:11.595Z,793.94
2018-05-01T02:05:15.802Z,793.95
2018-05-01T02:05:20.121Z,793.97
2018-05-01T02:05:24.226Z,793.98
2018-05-01T02:05:28.334Z,793.97
2018-05-01T02:05:32.437Z,793.98
2018-05-01T02:05:36.647Z,793.96
2018-05-01T02:05:40.958Z,793.96
2018-05-01T02:05:45.170Z,793.96
2018-05-01T02:05:49.489Z,793.97
2018-05-01T02:05:53.587Z,793.95
2018-05-01T02:05:57.697Z,793.96
2018-05-01T02:06:02.020Z,793.94
2018-05-01T02:06:06.350Z,793.95
2018-05-01T02:06:10.668Z,793.98
2018-05-01T02:06:14.770Z,793.97
2018-05-01T02:06:18.978Z,793.97
2018-05-01T02:06:23.085Z,793.98
2018-05-01T02:06:27.187Z,793.96
2018-05-01T02:06:31.507Z,793.96
2018-05-01T02:06:35.849Z,793.99
2018-05-01T02:06:40.059Z,793.97
2018-05-01T02:06:44.279Z,793.95
2018-05-01T02:06:48.608Z,793.99
2018-05-01T02:06:52.834Z,794.01
2018-05-01T02:06:57.048Z,794
2018-05-01T02:07:01.273Z,794.02
2018-05-01T02:07:05.374Z,794
2018-05-01T02:07:09.595Z,794.05
2018-05-01T02:07:13.588Z,794.01
2018-05-01T02:07:17.688Z,794.03
2018-05-01T02:07:21.687Z,794.02
2018-05-01T02:07:25.897Z,793.99
2018-05-01T02:07:30.100Z,794
2018-05-01T02:07:34.422Z,794
2018-05-01T02:07:38.525Z,794
2018-05-01T02:07:42.736Z,794
2018-05-01T02:07:46.955Z,793.98
2018-05-01T02:07:51.343Z,794.01
2018-05-01T02:07:55.550Z,793.98
2018-05-01T02:07:59.765Z,794
2018-05-01T02:08:04.026Z,794.02
2018-05-01T02:08:08.236Z,793.99
2018-05-01T02:08:12.336Z,794.06
2018-05-01T02:08:16.650Z,794.03
2018-05-01T02:08:20.860Z,794
2018-05-01T02:08:25.177Z,793.99
2018-05-01T02:08:29.384Z,794.02
2018-05-01T02:08:33.600Z,794.02
2018-05-01T02:08:37.809Z,794.04
2018-05-01T02:08:42.141Z,794.03
2018-05-01T02:08:46.352Z,794.03
2018-05-01T02:08:50.667Z,794
2018-05-01T02:08:54.984Z,793.97
2018-05-01T02:08:59.194Z,793.97
2018-05-01T02:09:03.405Z,794.02
2018-05-01T02:09:07.610Z,794.04
2018-05-01T02:09:11.925Z,794.05
2018-05-01T02:09:16.245Z,793.98
2018-05-01T02:09:20.344Z,793.99
2018-05-01T02:09:24.567Z,794.03
2018-05-01T02:09:28.558Z,794.02
2018-05-01T02:09:32.871Z,793.98
2018-05-01T02:09:36.975Z,794.06
2018-05-01T02:09:41.202Z,794.05
2018-05-01T02:09:45.407Z,794.02
2018-05-01T02:09:49.738Z,793.98
2018-05-01T02:09:54.128Z,793.99
2018-05-01T02:09:58.335Z,794.08
2018-05-01T02:10:02.541Z,794.09
2018-05-01T02:10:06.653Z,794.04
2018-05-01T02:10:10.866Z,794.06
2018-05-01T02:10:15.083Z,794.03
2018-05-01T02:10:19.358Z,794.04
2018-05-01T02:10:23.569Z,794.06
2018-05-01T02:10:27.661Z,794.03
2018-05-01T02:10:31.867Z,794.05
2018-05-01T02:10:36.075Z,794.04
2018-05-01T02:10:40.284Z,794.06
2018-05-01T02:10:44.603Z,794.03
2018-05-01T02:10:48.920Z,794.05
2018-05-01T02:10:53.232Z,794.03
2018-05-01T02:10:57.546Z,794.07
2018-05-01T02:11:01.867Z,794.05
2018-05-01T02:11:05.859Z,794.05
2018-05-01T02:11:10.194Z,794.02
2018-05-01T02:11:14.398Z,794.03
2018-05-01T02:11:18.623Z,794.06
2018-05-01T02:11:22.941Z,794.06
2018-05-01T02:11:27.041Z,794.05
2018-05-01T02:11:31.365Z,794.06
2018-05-01T02:11:35.578Z,794.05
2018-05-01T02:11:39.684Z,794.07
2018-05-01T02:11:43.786Z,794.07
2018-05-01T02:11:47.999Z,794.07
2018-05-01T02:11:52.207Z,794.07
2018-05-01T02:11:56.521Z,794.04
2018-05-01T02:12:00.848Z,794.1
2018-05-01T02:12:04.777Z,794.07
2018-05-01T02:12:08.990Z,794.04
2018-05-01T02:12:13.206Z,794.04
2018-05-01T02:12:17.432Z,794.03
2018-05-01T02:12:21.833Z,794.06
2018-05-01T02:12:25.936Z,794.03
2018-05-01T02:12:30.041Z,794.07
2018-05-01T02:12:34.359Z,794.07
2018-05-01T02:12:38.571Z,794.09
2018-05-01T02:12:42.568Z,794.08
2018-05-01T02:12:46.782Z,794.1
2018-05-01T02:12:50.879Z,794.1
2018-05-01T02:12:54.875Z,794.09
2018-05-01T02:12:59.194Z,794.06
2018-05-01T02:13:03.539Z,794.06
2018-05-01T02:13:07.950Z,794.09
2018-05-01T02:13:12.272Z,794.07
2018-05-01T02:13:16.590Z,794.07
2018-05-01T02:13:20.763Z,794.08
2018-05-01T02:13:25.084Z,794.09
2018-05-01T02:13:29.405Z,794.11
2018-05-01T02:13:33.609Z,794.09
2018-05-01T02:13:37.950Z,794.1
2018-05-01T02:13:42.157Z,794.09
2018-05-01T02:13:46.260Z,794.07
2018-05-01T02:13:50.471Z,794.09
2018-05-01T02:13:54.684Z,794.09
2018-05-01T02:13:58.903Z,794.09
2018-05-01T02:14:03.010Z,794.08
2018-05-01T02:14:07.255Z,794.08
2018-05-01T02:14:11.663Z,794.07
2018-05-01T02:14:15.869Z,794.09
2018-05-01T02:14:20.187Z,794.1
2018-05-01T02:14:24.286Z,794.09
2018-05-01T02:14:28.287Z,794.08
2018-05-01T02:14:32.387Z,794.1
2018-05-01T02:14:36.486Z,794.12
2018-05-01T02:14:40.807Z,794.09
2018-05-01T02:14:45.028Z,794.11
2018-05-01T02:14:49.137Z,794.05
2018-05-01T02:14:53.237Z,794.1
2018-05-01T02:14:57.453Z,794.1
2018-05-01T02:15:01.785Z,794.1
2018-05-01T02:15:05.678Z,794.08
2018-05-01T02:15:09.891Z,794.09
2018-05-01T02:15:14.105Z,794.14
2018-05-01T02:15:18.207Z,794.15
2018-05-01T02:15:22.522Z,794.15
2018-05-01T02:15:26.731Z,794.11
2018-05-01T02:15:31.119Z,794.11
2018-05-01T02:15:35.218Z,794.12
2018-05-01T02:15:39.320Z,794.14
2018-05-01T02:15:43.538Z,794.14
2018-05-01T02:15:47.651Z,794.16
2018-05-01T02:15:51.868Z,794.07
2018-05-01T02:15:56.072Z,794.09
2018-05-01T02:16:00.281Z,794.12
2018-05-01T02:16:04.495Z,794.15
2018-05-01T02:16:08.590Z,794.14
2018-05-01T02:16:12.905Z,794.14
2018-05-01T02:16:17.223Z,794.13
2018-05-01T02:16:21.427Z,794.12
2018-05-01T02:16:25.634Z,794.15
2018-05-01T02:16:29.954Z,794.15
2018-05-01T02:16:34.062Z,794.12
2018-05-01T02:16:38.456Z,794.15
2018-05-01T02:16:42.561Z,794.15
2018-05-01T02:16:46.767Z,794.13
2018-05-01T02:16:51.084Z,794.16
2018-05-01T02:16:55.180Z,794.13
2018-05-01T02:16:59.518Z,794.16
2018-05-01T02:17:03.515Z,794.15
2018-05-01T02:17:07.840Z,794.14
2018-05-01T02:17:12.045Z,794.15
2018-05-01T02:17:16.149Z,794.14
2018-05-01T02:17:20.361Z,794.14
2018-05-01T02:17:24.571Z,794.13
2018-05-01T02:17:28.565Z,794.16
2018-05-01T02:17:32.769Z,794.15
2018-05-01T02:17:37.085Z,794.16
2018-05-01T02:17:41.402Z,794.15
2018-05-01T02:17:45.608Z,794.14
2018-05-01T02:17:49.927Z,794.18
2018-05-01T02:17:54.141Z,794.13
2018-05-01T02:17:58.348Z,794.17
2018-05-01T02:18:02.674Z,794.13
2018-05-01T02:18:06.780Z,794.15
2018-05-01T02:18:10.989Z,794.15
2018-05-01T02:18:15.204Z,794.12
2018-05-01T02:18:19.418Z,794.14
2018-05-01T02:18:23.629Z,794.16
2018-05-01T02:18:27.943Z,794.15
2018-05-01T02:18:32.160Z,794.14
2018-05-01T02:18:36.259Z,794.1
2018-05-01T02:18:40.364Z,794.11
2018-05-01T02:18:44.566Z,794.14
2018-05-01T02:18:48.560Z,794.12
2018-05-01T02:18:52.561Z,794.14
2018-05-01T02:18:56.874Z,794.11
2018-05-01T02:19:01.189Z,794.14
2018-05-01T02:19:05.443Z,794.13
2018-05-01T02:19:09.546Z,794.12
2018-05-01T02:19:13.767Z,794.14
2018-05-01T02:19:18.078Z,794.11
2018-05-01T02:19:22.282Z,794.14
2018-05-01T02:19:26.494Z,794.11
2018-05-01T02:19:30.704Z,794.15
2018-05-01T02:19:34.916Z,794.14
2018-05-01T02:19:39.238Z,794.12
2018-05-01T02:19:43.574Z,794.13
2018-05-01T02:19:47.897Z,794.13
2018-05-01T02:19:52.081Z,794.12
2018-05-01T02:19:56.190Z,794.14
2018-05-01T02:20:00.507Z,794.14
2018-05-01T02:20:04.618Z,794.14
2018-05-01T02:20:08.937Z,794.13
2018-05-01T02:20:13.150Z,794.14
2018-05-01T02:20:17.364Z,794.16
2018-05-01T02:20:21.674Z,794.14
2018-05-01T02:20:25.793Z,794.12
2018-05-01T02:20:30.108Z,794.16
2018-05-01T02:20:34.327Z,794.16
2018-05-01T02:20:38.329Z,794.15
2018-05-01T02:20:42.543Z,794.12
2018-05-01T02:20:46.864Z,794.17
2018-05-01T02:20:51.068Z,794.11
2018-05-01T02:20:55.064Z,794.11
2018-05-01T02:20:59.382Z,794.18
2018-05-01T02:21:03.702Z,794.19
2018-05-01T02:21:07.691Z,794.15
2018-05-01T02:21:11.901Z,794.18
2018-05-01T02:21:16.108Z,794.16
2018-05-01T02:21:20.212Z,794.18
2018-05-01T02:21:24.416Z,794.18
2018-05-01T02:21:28.735Z,794.19
2018-05-01T02:21:32.947Z,794.2
2018-05-01T02:21:37.164Z,794.18
2018-05-01T02:21:41.477Z,794.17
2018-05-01T02:21:45.484Z,794.18
2018-05-01T02:21:49.698Z,794.17
2018-05-01T02:21:54.021Z,794.14
2018-05-01T02:21:58.334Z,794.16
2018-05-01T02:22:02.655Z,794.17
2018-05-01T02:22:06.758Z,794.19
2018-05-01T02:22:10.867Z,794.18
2018-05-01T02:22:15.080Z,794.19
2018-05-01T02:22:19.316Z,794.14
2018-05-01T02:22:23.632Z,794.13
2018-05-01T02:22:27.846Z,794.18
2018-05-01T02:22:32.163Z,794.19
2018-05-01T02:22:36.479Z,794.16
2018-05-01T02:22:40.694Z,794.2
2018-05-01T02:22:44.909Z,794.17
2018-05-01T02:22:49.134Z,794.19
2018-05-01T02:22:53.448Z,794.19
2018-05-01T02:22:57.654Z,794.18
2018-05-01T02:23:02.093Z,794.19
2018-05-01T02:23:06.307Z,794.19
2018-05-01T02:23:10.412Z,794.2
2018-05-01T02:23:14.624Z,794.15
2018-05-01T02:23:18.935Z,794.19
2018-05-01T02:23:23.158Z,794.19
2018-05-01T02:23:27.485Z,794.21
2018-05-01T02:23:31.584Z,794.19
2018-05-01T02:23:35.794Z,794.17
2018-05-01T02:23:40.017Z,794.2
2018-05-01T02:23:44.227Z,794.19
2018-05-01T02:23:48.543Z,794.22
2018-05-01T02:23:52.757Z,794.22
2018-05-01T02:23:56.970Z,794.15
2018-05-01T02:24:01.181Z,794.21
2018-05-01T02:24:05.191Z,794.16
2018-05-01T02:24:09.191Z,794.17
2018-05-01T02:24:13.404Z,794.15
2018-05-01T02:24:17.609Z,794.2
2018-05-01T02:24:21.820Z,794.18
2018-05-01T02:24:26.069Z,794.22
2018-05-01T02:24:30.182Z,794.21
2018-05-01T02:24:34.495Z,794.22
2018-05-01T02:24:38.825Z,794.18
2018-05-01T02:24:43.148Z,794.2
2018-05-01T02:24:47.250Z,794.22
2018-05-01T02:24:51.355Z,794.23
2018-05-01T02:24:55.694Z,794.19
2018-05-01T02:24:59.901Z,794.22
2018-05-01T02:25:04.122Z,794.21
2018-05-01T02:25:08.226Z,794.18
2018-05-01T02:25:12.332Z,794.2
2018-05-01T02:25:16.656Z,794.22
2018-05-01T02:25:20.974Z,794.19
2018-05-01T02:25:25.092Z,794.16
2018-05-01T02:25:29.408Z,794.16
2018-05-01T02:25:33.621Z,794.21
2018-05-01T02:25:37.835Z,794.19
2018-05-01T02:25:42.151Z,794.17
2018-05-01T02:25:46.158Z,794.18
2018-05-01T02:25:50.367Z,794.18
2018-05-01T02:25:54.681Z,794.2
2018-05-01T02:25:58.689Z,794.22
2018-05-01T02:26:02.791Z,794.2
2018-05-01T02:26:06.998Z,794.21
2018-05-01T02:26:11.221Z,794.2
2018-05-01T02:26:15.438Z,794.21
2018-05-01T02:26:19.760Z,794.19
2018-05-01T02:26:24.168Z,794.21
2018-05-01T02:26:28.265Z,794.21
2018-05-01T02:26:32.576Z,794.19
2018-05-01T02:26:36.790Z,794.18
2018-05-01T02:26:41.109Z,794.14
2018-05-01T02:26:45.211Z,794.19
2018-05-01T02:26:49.526Z,794.17
2018-05-01T02:26:53.518Z,794.2
2018-05-01T02:26:57.723Z,794.18
2018-05-01T02:27:01.935Z,794.18
2018-05-01T02:27:06.032Z,794.18
2018-05-01T02:27:10.135Z,794.2
2018-05-01T02:27:14.451Z,794.19
2018-05-01T02:27:18.558Z,794.19
2018-05-01T02:27:22.553Z,794.17
2018-05-01T02:27:26.662Z,794.19
2018-05-01T02:27:30.878Z,794.18
2018-05-01T02:27:35.091Z,794.16
2018-05-01T02:27:39.299Z,794.19
2018-05-01T02:27:43.400Z,794.2
2018-05-01T02:27:47.612Z,794.18
2018-05-01T02:27:51.930Z,794.17
2018-05-01T02:27:56.141Z,794.18
2018-05-01T02:28:00.465Z,794.2
2018-05-01T02:28:04.718Z,794.18
2018-05-01T02:28:08.827Z,794.17
2018-05-01T02:28:13.035Z,794.2
2018-05-01T02:28:17.251Z,794.21
2018-05-01T02:28:21.349Z,794.22
2018-05-01T02:28:25.558Z,794.21
2018-05-01T02:28:29.883Z,794.18
2018-05-01T02:28:33.986Z,794.23
2018-05-01T02:28:38.312Z,794.24
2018-05-01T02:28:42.517Z,794.24
2018-05-01T02:28:46.834Z,794.22
2018-05-01T02:28:51.047Z,794.24
2018-05-01T02:28:55.258Z,794.23
2018-05-01T02:28:59.464Z,794.24
2018-05-01T02:29:03.464Z,794.24
2018-05-01T02:29:07.569Z,794.26
2018-05-01T02:29:11.784Z,794.25
2018-05-01T02:29:16.001Z,794.25
2018-05-01T02:29:20.004Z,794.24
2018-05-01T02:29:24.214Z,794.25
2018-05-01T02:29:28.425Z,794.25
2018-05-01T02:29:32.637Z,794.25
2018-05-01T02:29:36.735Z,794.25
2018-05-01T02:29:40.850Z,794.25
2018-05-01T02:29:45.141Z,794.2
2018-05-01T02:29:49.348Z,794.23
2018-05-01T02:29:53.558Z,794.3
2018-05-01T02:29:57.555Z,794.27
2018-05-01T02:30:01.656Z,794.26
2018-05-01T02:30:05.776Z,794.26
2018-05-01T02:30:10.114Z,794.23
2018-05-01T02:30:14.324Z,794.28
2018-05-01T02:30:18.446Z,794.27
2018-05-01T02:30:22.775Z,794.28
2018-05-01T02:30:26.981Z,794.24
2018-05-01T02:30:31.216Z,794.3
2018-05-01T02:30:35.535Z,794.3
2018-05-01T02:30:39.748Z,794.3
2018-05-01T02:30:43.858Z,794.29
2018-05-01T02:30:48.176Z,794.3
2018-05-01T02:30:52.175Z,794.3
2018-05-01T02:30:56.412Z,794.29
2018-05-01T02:31:00.761Z,794.31
2018-05-01T02:31:04.766Z,794.32
2018-05-01T02:31:08.899Z,794.29
2018-05-01T02:31:13.222Z,794.3
2018-05-01T02:31:17.648Z,794.34
2018-05-01T02:31:21.996Z,794.34
2018-05-01T02:31:26.210Z,794.32
2018-05-01T02:31:30.209Z,794.35
2018-05-01T02:31:34.433Z,794.32
2018-05-01T02:31:38.765Z,794.32
2018-05-01T02:31:43.093Z,794.34
2018-05-01T02:31:47.411Z,794.33
2018-05-01T02:31:51.733Z,794.34
2018-05-01T02:31:56.065Z,794.38
2018-05-01T02:32:00.301Z,794.38
2018-05-01T02:32:04.549Z,794.37
2018-05-01T02:32:08.792Z,794.35
2018-05-01T02:32:13.129Z,794.37
2018-05-01T02:32:17.448Z,794.4
2018-05-01T02:32:21.771Z,794.4
2018-05-01T02:32:26.083Z,794.37
2018-05-01T02:32:30.306Z,794.38
2018-05-01T02:32:34.625Z,794.34
2018-05-01T02:32:38.968Z,794.4
2018-05-01T02:32:43.089Z,794.4
2018-05-01T02:32:47.412Z,794.34
2018-05-01T02:32:51.733Z,794.37
2018-05-01T02:32:55.940Z,794.41
2018-05-01T02:33:00.149Z,794.43
2018-05-01T02:33:04.271Z,794.45
2018-05-01T02:33:08.478Z,794.42
2018-05-01T02:33:12.706Z,794.43
2018-05-01T02:33:17.029Z,794.41
2018-05-01T02:33:21.349Z,794.43
2018-05-01T02:33:25.565Z,794.44
2018-05-01T02:33:29.774Z,794.43
2018-05-01T02:33:34.094Z,794.41
2018-05-01T02:33:38.419Z,794.43
2018-05-01T02:33:42.740Z,794.45
2018-05-01T02:33:47.078Z,794.48
2018-05-01T02:33:51.299Z,794.44
2018-05-01T02:33:55.624Z,794.44
2018-05-01T02:33:59.840Z,794.47
2018-05-01T02:34:04.094Z,794.44
2018-05-01T02:34:08.441Z,794.47
2018-05-01T02:34:12.776Z,794.5
2018-05-01T02:34:17.106Z,794.51
2018-05-01T02:34:21.427Z,794.51
2018-05-01T02:34:25.760Z,794.5
2018-05-01T02:34:29.859Z,794.5
2018-05-01T02:34:34.075Z,794.49
2018-05-01T02:34:38.399Z,794.52
2018-05-01T02:34:42.721Z,794.53
2018-05-01T02:34:47.043Z,794.54
2018-05-01T02:34:51.375Z,794.49
2018-05-01T02:34:55.797Z,794.55
2018-05-01T02:35:00.004Z,794.55
2018-05-01T02:35:04.120Z,794.52
2018-05-01T02:35:08.336Z,794.53
2018-05-01T02:35:12.654Z,794.55
2018-05-01T02:35:16.873Z,794.59
2018-05-01T02:35:21.092Z,794.55
2018-05-01T02:35:25.175Z,794.59
2018-05-01T02:35:29.499Z,794.55
2018-05-01T02:35:33.825Z,794.58
2018-05-01T02:35:38.037Z,794.53
2018-05-01T02:35:42.456Z,794.55
2018-05-01T02:35:46.683Z,794.58
2018-05-01T02:35:51.015Z,794.6
2018-05-01T02:35:55.331Z,794.6
2018-05-01T02:35:59.636Z,794.59
2018-05-01T02:36:03.858Z,794.61
2018-05-01T02:36:08.000Z,794.61
2018-05-01T02:36:12.416Z,794.6
2018-05-01T02:36:16.745Z,794.6
2018-05-01T02:36:21.076Z,794.61
2018-05-01T02:36:25.295Z,794.64
2018-05-01T02:36:29.617Z,794.61
2018-05-01T02:36:33.841Z,794.65
2018-05-01T02:36:38.061Z,794.63
2018-05-01T02:36:42.407Z,794.65
2018-05-01T02:36:46.729Z,794.64
2018-05-01T02:36:51.109Z,794.64
2018-05-01T02:36:55.426Z,794.66
2018-05-01T02:36:59.654Z,794.63
2018-05-01T02:37:04.157Z,794.62
2018-05-01T02:37:08.376Z,794.67
2018-05-01T02:37:12.713Z,794.67
2018-05-01T02:37:17.032Z,794.69
2018-05-01T02:37:21.356Z,794.68
2018-05-01T02:37:25.582Z,794.67
2018-05-01T02:37:29.907Z,794.68
2018-05-01T02:37:34.238Z,794.71
2018-05-01T02:37:38.446Z,794.7
2018-05-01T02:37:42.553Z,794.71
2018-05-01T02:37:46.879Z,794.73
2018-05-01T02:37:50.876Z,794.75
2018-05-01T02:37:55.205Z,794.72
2018-05-01T02:37:59.414Z,794.75
2018-05-01T02:38:03.738Z,794.74
2018-05-01T02:38:07.967Z,794.75
2018-05-01T02:38:12.293Z,794.75
2018-05-01T02:38:16.531Z,794.76
2018-05-01T02:38:20.758Z,794.75
2018-05-01T02:38:24.976Z,794.8
2018-05-01T02:38:29.199Z,794.76
2018-05-01T02:38:33.522Z,794.78
2018-05-01T02:38:37.732Z,794.8
2018-05-01T02:38:41.951Z,794.81
2018-05-01T02:38:46.314Z,794.82
2018-05-01T02:38:50.637Z,794.81
2018-05-01T02:38:54.858Z,794.81
2018-05-01T02:38:59.191Z,794.82
2018-05-01T02:39:03.406Z,794.84
2018-05-01T02:39:07.734Z,794.81
2018-05-01T02:39:11.737Z,794.84
2018-05-01T02:39:16.081Z,794.83
2018-05-01T02:39:20.305Z,794.81
2018-05-01T02:39:24.621Z,794.82
2018-05-01T02:39:28.861Z,794.84
2018-05-01T02:39:33.071Z,794.87
2018-05-01T02:39:37.492Z,794.87
2018-05-01T02:39:41.814Z,794.88
2018-05-01T02:39:46.145Z,794.87
2018-05-01T02:39:50.477Z,794.88
2018-05-01T02:39:54.894Z,794.88
2018-05-01T02:39:59.114Z,794.88
2018-05-01T02:40:03.341Z,794.9
2018-05-01T02:40:07.557Z,794.87
2018-05-01T02:40:11.663Z,794.88
2018-05-01T02:40:15.884Z,794.86
2018-05-01T02:40:20.208Z,794.9
2018-05-01T02:40:24.412Z,794.88
2018-05-01T02:40:28.620Z,794.87
2018-05-01T02:40:32.940Z,794.91
2018-05-01T02:40:37.271Z,794.88
2018-05-01T02:40:41.595Z,794.91
2018-05-01T02:40:45.907Z,794.9
2018-05-01T02:40:50.229Z,794.93
2018-05-01T02:40:54.441Z,794.94
2018-05-01T02:40:58.774Z,794.96
2018-05-01T02:41:02.996Z,794.97
2018-05-01T02:41:07.358Z,794.96
2018-05-01T02:41:12.035Z,794.97
2018-05-01T02:41:16.456Z,794.97
2018-05-01T02:41:21.594Z,795
2018-05-01T02:41:25.803Z,794.99
2018-05-01T02:41:29.910Z,794.98
2018-05-01T02:41:34.115Z,795.02
2018-05-01T02:41:38.336Z,795.01
2018-05-01T02:41:42.441Z,795.02
2018-05-01T02:41:46.667Z,795
2018-05-01T02:41:50.990Z,795.04
2018-05-01T02:41:55.307Z,795
2018-05-01T02:41:59.638Z,795.04
2018-05-01T02:42:03.857Z,795.05
2018-05-01T02:42:08.071Z,795.06
2018-05-01T02:42:12.292Z,795.05
2018-05-01T02:42:16.621Z,795.08
2018-05-01T02:42:20.831Z,795.06
2018-05-01T02:42:25.159Z,795.08
2018-05-01T02:42:29.265Z,795.04
2018-05-01T02:42:33.594Z,795.05
2018-05-01T02:42:37.914Z,795.08
2018-05-01T02:42:42.015Z,795.08
2018-05-01T02:42:46.344Z,795.08
2018-05-01T02:42:50.570Z,795.08
2018-05-01T02:42:54.784Z,795.09
2018-05-01T02:42:59.101Z,795.11
2018-05-01T02:43:03.311Z,795.1
2018-05-01T02:43:07.657Z,795.1
2018-05-01T02:43:11.874Z,795.1
2018-05-01T02:43:16.097Z,795.12
2018-05-01T02:43:20.204Z,795.14
2018-05-01T02:43:24.411Z,795.12
2018-05-01T02:43:28.407Z,795.13
2018-05-01T02:43:32.741Z,795.13
2018-05-01T02:43:36.956Z,795.13
2018-05-01T02:43:41.174Z,795.15
2018-05-01T02:43:45.484Z,795.16
2018-05-01T02:43:49.809Z,795.15
2018-05-01T02:43:54.024Z,795.16
2018-05-01T02:43:58.342Z,795.18
2018-05-01T02:44:02.558Z,795.18
2018-05-01T02:44:06.792Z,795.19
2018-05-01T02:44:11.117Z,795.19
2018-05-01T02:44:15.323Z,795.21
2018-05-01T02:44:19.538Z,795.19
2018-05-01T02:44:23.863Z,795.2
2018-05-01T02:44:28.079Z,795.2
2018-05-01T02:44:32.404Z,795.21
2018-05-01T02:44:36.634Z,795.21
2018-05-01T02:44:40.844Z,795.19
2018-05-01T02:44:45.085Z,795.22
2018-05-01T02:44:49.302Z,795.23
2018-05-01T02:44:53.663Z,795.22
2018-05-01T02:44:57.871Z,795.19
2018-05-01T02:45:02.219Z,795.24
2018-05-01T02:45:06.579Z,795.23
2018-05-01T02:45:10.898Z,795.26
2018-05-01T02:45:15.103Z,795.25
2018-05-01T02:45:19.337Z,795.23
2018-05-01T02:45:23.660Z,795.27
2018-05-01T02:45:27.883Z,795.26
2018-05-01T02:45:32.111Z,795.26
2018-05-01T02:45:36.220Z,795.25
2018-05-01T02:45:40.443Z,795.27
2018-05-01T02:45:44.654Z,795.28
2018-05-01T02:45:48.872Z,795.26
2018-05-01T02:45:53.196Z,795.27
2018-05-01T02:45:57.414Z,795.27
2018-05-01T02:46:01.748Z,795.29
2018-05-01T02:46:05.989Z,795.28
2018-05-01T02:46:10.197Z,795.28
2018-05-01T02:46:14.523Z,795.25
2018-05-01T02:46:18.625Z,795.26
2018-05-01T02:46:22.945Z,795.3
2018-05-01T02:46:27.165Z,795.35
2018-05-01T02:46:31.509Z,795.32
2018-05-01T02:46:35.838Z,795.32
2018-05-01T02:46:40.164Z,795.34
2018-05-01T02:46:44.494Z,795.35
2018-05-01T02:46:48.600Z,795.34
2018-05-01T02:46:52.917Z,795.36
2018-05-01T02:46:57.147Z,795.34
2018-05-01T02:47:01.485Z,795.37
2018-05-01T02:47:05.645Z,795.35
2018-05-01T02:47:09.867Z,795.37
2018-05-01T02:47:14.197Z,795.34
2018-05-01T02:47:18.409Z,795.34
2018-05-01T02:47:22.731Z,795.35
2018-05-01T02:47:26.953Z,795.37
2018-05-01T02:47:31.273Z,795.39
2018-05-01T02:47:35.613Z,795.38
2018-05-01T02:47:39.952Z,795.38
2018-05-01T02:47:44.275Z,795.37
2018-05-01T02:47:48.503Z,795.36
2018-05-01T02:47:52.619Z,795.43
2018-05-01T02:47:56.620Z,795.39
2018-05-01T02:48:00.941Z,795.4
2018-05-01T02:48:05.283Z,795.36
2018-05-01T02:48:09.490Z,795.41
2018-05-01T02:48:13.699Z,795.32
2018-05-01T02:48:17.992Z,795.35
2018-05-01T02:48:22.243Z,795.42
2018-05-01T02:48:26.557Z,795.41
2018-05-01T02:48:30.891Z,795.42
2018-05-01T02:48:35.098Z,795.44
2018-05-01T02:48:39.425Z,795.42
2018-05-01T02:48:43.751Z,795.43
2018-05-01T02:48:48.076Z,795.44
2018-05-01T02:48:52.396Z,795.4
2018-05-01T02:48:56.719Z,795.35
2018-05-01T02:49:00.931Z,795.4
2018-05-01T02:49:04.930Z,795.36
2018-05-01T02:49:09.051Z,795.35
2018-05-01T02:49:13.369Z,795.36
2018-05-01T02:49:17.688Z,795.4
2018-05-01T02:49:21.801Z,795.4
2018-05-01T02:49:25.796Z,795.4
2018-05-01T02:49:30.154Z,795.39
2018-05-01T02:49:34.474Z,795.39
2018-05-01T02:49:38.796Z,795.4
2018-05-01T02:49:43.170Z,795.43
2018-05-01T02:49:47.510Z,795.4
2018-05-01T02:49:51.857Z,795.31
2018-05-01T02:49:56.195Z,795.39
2018-05-01T02:50:00.422Z,795.37
2018-05-01T02:50:04.749Z,795.39
2018-05-01T02:50:08.958Z,795.43
2018-05-01T02:50:13.361Z,795.42
2018-05-01T02:50:17.700Z,795.38
2018-05-01T02:50:21.910Z,795.45
2018-05-01T02:50:26.254Z,795.45
2018-05-01T02:50:30.480Z,795.41
2018-05-01T02:50:34.482Z,795.43
2018-05-01T02:50:38.831Z,795.38
2018-05-01T02:50:43.084Z,795.41
2018-05-01T02:50:47.414Z,795.35
2018-05-01T02:50:51.740Z,795.38
2018-05-01T02:50:55.958Z,795.43
2018-05-01T02:51:00.283Z,795.42
2018-05-01T02:51:04.507Z,795.39
2018-05-01T02:51:08.629Z,795.39
2018-05-01T02:51:12.858Z,795.39
2018-05-01T02:51:17.079Z,795.4
2018-05-01T02:51:21.288Z,795.41
2018-05-01T02:51:25.628Z,795.39
2018-05-01T02:51:29.728Z,795.33
2018-05-01T02:51:34.047Z,795.43
2018-05-01T02:51:38.378Z,795.41
2018-05-01T02:51:42.593Z,795.43
2018-05-01T02:51:46.922Z,795.44
2018-05-01T02:51:51.238Z,795.41
2018-05-01T02:51:55.560Z,795.42
2018-05-01T02:51:59.887Z,795.39
2018-05-01T02:52:04.146Z,795.43
2018-05-01T02:52:08.146Z,795.38
2018-05-01T02:52:12.494Z,795.42
2018-05-01T02:52:16.744Z,795.42
2018-05-01T02:52:20.863Z,795.39
2018-05-01T02:52:24.970Z,795.35
2018-05-01T02:52:29.205Z,795.35
2018-05-01T02:52:33.568Z,795.41
2018-05-01T02:52:37.908Z,795.43
2018-05-01T02:52:42.126Z,795.38
2018-05-01T02:52:46.357Z,795.38
2018-05-01T02:52:50.465Z,795.4
2018-05-01T02:52:54.686Z,795.34
2018-05-01T02:52:58.915Z,795.35
2018-05-01T02:53:02.928Z,795.34
2018-05-01T02:53:07.038Z,795.4
2018-05-01T02:53:11.253Z,795.36
2018-05-01T02:53:15.582Z,795.39
2018-05-01T02:53:19.896Z,795.39